createdAt,value
2019-05-21T00:01:18.940Z,15.28
2019-05-21T00:03:47.463Z,17.10
2019-05-21T00:06:16.433Z,17.27
2019-05-21T00:08:44.983Z,17.07
2019-05-21T00:11:13.759Z,17.12
2019-05-21T00:13:42.503Z,17.37
2019-05-21T00:16:11.063Z,19.70
2019-05-21T00:18:39.522Z,18.55
2019-05-21T00:21:10.271Z,20.92
2019-05-21T00:23:38.813Z,19.65
2019-05-21T00:26:07.395Z,20.32
2019-05-21T00:28:40.186Z,19.23
2019-05-21T00:31:45.719Z,21.27
2019-05-21T00:34:50.932Z,21.75
2019-05-21T00:37:55.939Z,23.22
2019-05-21T00:41:01.533Z,22.80
2019-05-21T00:43:45.285Z,23.47
2019-05-21T00:46:14.188Z,20.00
2019-05-21T00:48:42.923Z,20.00
2019-05-21T00:51:11.577Z,20.65
2019-05-21T00:53:40.463Z,22.60
2019-05-21T00:56:08.994Z,21.62
2019-05-21T00:58:37.575Z,21.60
2019-05-21T01:01:07.539Z,20.82
2019-05-21T01:03:36.017Z,21.95
2019-05-21T01:06:04.749Z,22.87
2019-05-21T01:08:33.358Z,21.30
2019-05-21T01:11:02.971Z,22.95
2019-05-21T01:13:31.471Z,23.47
2019-05-21T01:16:00.133Z,23.45
2019-05-21T01:18:28.615Z,23.10
2019-05-21T01:20:57.432Z,21.95
2019-05-21T01:23:26.034Z,23.62
2019-05-21T01:25:54.612Z,21.23
2019-05-21T01:28:23.095Z,20.57
2019-05-21T01:30:51.957Z,21.00
2019-05-21T01:33:20.470Z,19.17
2019-05-21T01:35:48.969Z,21.60
2019-05-21T01:38:17.561Z,20.65
2019-05-21T01:40:46.504Z,21.12
2019-05-21T01:43:15.056Z,20.75
2019-05-21T01:45:43.857Z,20.17
2019-05-21T01:48:12.437Z,22.32
2019-05-21T01:50:41.252Z,18.07
2019-05-21T01:53:10.038Z,19.62
2019-05-21T01:55:38.560Z,17.48
2019-05-21T01:58:07.119Z,19.07
2019-05-21T02:00:35.993Z,18.75
2019-05-21T02:03:04.623Z,20.25
2019-05-21T02:05:33.914Z,18.85
2019-05-21T02:08:02.824Z,17.12
2019-05-21T02:10:31.565Z,15.78
2019-05-21T02:13:00.069Z,15.88
2019-05-21T02:15:28.751Z,15.95
2019-05-21T02:17:57.329Z,16.27
2019-05-21T02:20:25.833Z,16.52
2019-05-21T02:22:54.506Z,16.20
2019-05-21T02:25:23.208Z,15.05
2019-05-21T02:27:51.805Z,16.93
2019-05-21T02:30:22.257Z,17.10
2019-05-21T02:32:50.860Z,18.62
2019-05-21T02:35:19.393Z,18.20
2019-05-21T02:37:47.963Z,20.32
2019-05-21T02:40:17.085Z,17.57
2019-05-21T02:42:45.628Z,19.52
2019-05-21T02:45:16.318Z,18.57
2019-05-21T02:47:44.917Z,17.55
2019-05-21T02:50:14.309Z,14.58
2019-05-21T02:52:43.045Z,13.03
2019-05-21T02:55:12.034Z,11.65
2019-05-21T02:57:43.508Z,12.53
2019-05-21T03:00:21.624Z,10.32
2019-05-21T03:02:50.172Z,13.32
2019-05-21T03:05:18.728Z,13.78
2019-05-21T03:07:47.369Z,10.60
2019-05-21T03:10:15.993Z,15.78
2019-05-21T03:12:44.507Z,14.98
2019-05-21T03:15:13.441Z,14.65
2019-05-21T03:17:42.126Z,15.32
2019-05-21T03:20:11.094Z,14.10
2019-05-21T03:22:39.743Z,16.70
2019-05-21T03:25:08.713Z,15.98
2019-05-21T03:27:37.196Z,16.55
2019-05-21T03:30:07.053Z,17.10
2019-05-21T03:32:35.659Z,16.70
2019-05-21T03:35:08.933Z,15.90
2019-05-21T03:37:37.676Z,15.18
2019-05-21T03:40:09.039Z,15.00
2019-05-21T03:42:37.616Z,19.52
2019-05-21T03:45:08.072Z,16.93
2019-05-21T03:47:37.200Z,20.43
2019-05-21T03:50:06.649Z,18.55
2019-05-21T03:52:35.431Z,20.35
2019-05-21T03:55:05.367Z,21.77
2019-05-21T03:57:33.889Z,26.77
2019-05-21T04:00:02.922Z,27.67
2019-05-21T04:02:31.614Z,26.82
2019-05-21T04:05:00.189Z,27.32
2019-05-21T04:07:28.745Z,25.82
2019-05-21T04:09:57.585Z,26.07
2019-05-21T04:12:26.277Z,24.43
2019-05-21T04:14:59.300Z,26.57
2019-05-21T04:17:38.619Z,26.70
2019-05-21T04:20:09.876Z,29.67
2019-05-21T04:22:39.986Z,30.82
2019-05-21T04:25:08.530Z,29.45
2019-05-21T04:27:37.178Z,32.40
2019-05-21T04:30:11.242Z,31.20
2019-05-21T04:32:37.880Z,28.25
2019-05-21T04:35:07.049Z,27.95
2019-05-21T04:37:35.584Z,28.62
2019-05-21T04:40:04.846Z,25.95
2019-05-21T04:42:33.570Z,25.82
2019-05-21T04:45:02.197Z,26.15
2019-05-21T04:47:30.731Z,28.32
2019-05-21T04:49:59.427Z,30.20
2019-05-21T04:52:28.209Z,29.72
2019-05-21T04:54:56.879Z,33.02
2019-05-21T04:57:25.422Z,25.60
2019-05-21T04:59:53.900Z,27.82
2019-05-21T05:02:27.465Z,31.02
2019-05-21T05:04:56.166Z,27.07
2019-05-21T05:07:28.274Z,28.70
2019-05-21T05:09:55.125Z,30.80
2019-05-21T05:12:24.106Z,29.32
2019-05-21T05:14:52.710Z,28.42
2019-05-21T05:17:21.282Z,25.02
2019-05-21T05:19:50.066Z,27.77
2019-05-21T05:22:19.003Z,27.37
2019-05-21T05:24:47.636Z,29.55
2019-05-21T05:27:16.279Z,30.88
2019-05-21T05:29:44.852Z,29.70
2019-05-21T05:32:14.635Z,28.10
2019-05-21T05:34:43.250Z,27.07
2019-05-21T05:37:11.789Z,27.30
2019-05-21T05:39:40.554Z,28.30
2019-05-21T05:42:09.364Z,29.98
2019-05-21T05:44:37.857Z,30.45
2019-05-21T05:47:06.347Z,27.65
2019-05-21T05:49:36.546Z,32.45
2019-05-21T05:52:05.325Z,33.75
2019-05-21T05:54:33.912Z,30.90
2019-05-21T05:57:02.429Z,30.85
2019-05-21T05:59:31.049Z,27.60
2019-05-21T06:02:00.136Z,19.73
2019-05-21T06:04:30.610Z,21.35
2019-05-21T06:06:59.175Z,20.88
2019-05-21T06:09:27.766Z,20.43
2019-05-21T06:11:56.510Z,21.37
2019-05-21T06:14:25.110Z,23.25
2019-05-21T06:16:53.736Z,24.10
2019-05-21T06:19:22.574Z,25.65
2019-05-21T06:21:51.658Z,24.82
2019-05-21T06:24:20.380Z,24.02
2019-05-21T06:26:49.108Z,28.10
2019-05-21T06:29:17.731Z,26.12
2019-05-21T06:31:46.383Z,24.18
2019-05-21T06:34:15.255Z,24.15
2019-05-21T06:36:43.800Z,25.30
2019-05-21T06:39:12.418Z,25.92
2019-05-21T06:41:41.266Z,24.35
2019-05-21T06:44:09.862Z,24.18
2019-05-21T06:46:38.438Z,20.75
2019-05-21T06:49:07.153Z,23.02
2019-05-21T06:51:38.932Z,21.80
2019-05-21T06:56:35.558Z,20.27
2019-05-21T06:59:04.451Z,19.37
2019-05-21T07:01:33.025Z,13.43
2019-05-21T07:04:01.719Z,14.20
2019-05-21T07:06:30.410Z,15.80
2019-05-21T07:08:58.965Z,15.55
2019-05-21T07:11:28.828Z,16.57
2019-05-21T07:13:57.298Z,16.30
2019-05-21T07:16:25.852Z,16.82
2019-05-21T07:18:54.748Z,17.80
2019-05-21T07:21:23.467Z,17.23
2019-05-21T07:23:51.951Z,17.70
2019-05-21T07:26:20.613Z,15.83
2019-05-21T07:28:49.443Z,15.48
2019-05-21T07:31:18.117Z,12.82
2019-05-21T07:33:46.873Z,13.78
2019-05-21T07:36:15.593Z,14.43
2019-05-21T07:38:53.111Z,15.00
2019-05-21T07:41:19.614Z,14.85
2019-05-21T07:43:46.340Z,14.98
2019-05-21T07:46:14.885Z,14.75
2019-05-21T07:48:43.483Z,14.85
2019-05-21T07:51:12.213Z,14.90
2019-05-21T07:53:40.805Z,13.72
2019-05-21T07:56:09.585Z,12.03
2019-05-21T07:58:38.063Z,13.13
2019-05-21T08:01:06.638Z,11.30
2019-05-21T08:03:35.520Z,10.98
2019-05-21T08:06:04.157Z,11.40
2019-05-21T08:08:32.757Z,11.68
2019-05-21T08:11:01.853Z,12.37
2019-05-21T08:13:30.461Z,12.75
2019-05-21T08:15:58.953Z,12.23
2019-05-21T08:18:27.510Z,11.93
2019-05-21T08:20:56.421Z,11.15
2019-05-21T08:23:24.962Z,12.15
2019-05-21T08:25:53.795Z,12.33
2019-05-21T08:28:22.404Z,11.43
2019-05-21T08:30:51.575Z,13.35
2019-05-21T08:33:20.235Z,11.75
2019-05-21T08:35:48.779Z,11.60
2019-05-21T08:38:17.318Z,11.22
2019-05-21T08:40:46.069Z,10.90
2019-05-21T08:43:14.683Z,9.65
2019-05-21T08:45:43.330Z,10.30
2019-05-21T08:48:12.230Z,7.55
2019-05-21T08:50:42.006Z,7.37
2019-05-21T08:53:10.651Z,8.15
2019-05-21T08:55:39.252Z,8.60
2019-05-21T08:58:08.051Z,8.55
2019-05-21T09:00:37.151Z,8.25
2019-05-21T09:03:05.850Z,7.53
2019-05-21T09:05:34.631Z,8.70
2019-05-21T09:08:03.177Z,8.30
2019-05-21T09:10:32.322Z,7.28
2019-05-21T09:13:00.786Z,8.00
2019-05-21T09:15:29.385Z,6.92
2019-05-21T09:17:58.087Z,7.95
2019-05-21T09:20:27.658Z,8.30
2019-05-21T09:22:56.213Z,7.95
2019-05-21T09:25:24.976Z,8.53
2019-05-21T09:27:53.545Z,7.72
2019-05-21T09:30:22.730Z,8.40
2019-05-21T09:32:51.459Z,8.10
2019-05-21T09:35:20.026Z,6.10
2019-05-21T09:37:48.507Z,7.62
2019-05-21T09:40:17.624Z,7.78
2019-05-21T09:42:46.184Z,8.45
2019-05-21T09:45:15.174Z,7.50
2019-05-21T09:47:43.944Z,7.20
2019-05-21T09:50:16.811Z,7.67
2019-05-21T09:52:45.533Z,6.60
2019-05-21T09:55:15.419Z,7.28
2019-05-21T09:57:57.397Z,7.00
2019-05-21T10:00:35.150Z,6.72
2019-05-21T10:03:15.309Z,6.85
2019-05-21T10:05:43.976Z,6.60
2019-05-21T10:08:12.553Z,7.87
2019-05-21T10:10:41.243Z,7.95
2019-05-21T10:13:10.051Z,8.08
2019-05-21T10:15:38.623Z,7.67
2019-05-21T10:18:07.386Z,8.45
2019-05-21T10:20:36.351Z,7.62
2019-05-21T10:23:04.949Z,7.25
2019-05-21T10:25:33.821Z,7.83
2019-05-21T10:28:02.680Z,7.35
2019-05-21T10:30:31.560Z,7.45
2019-05-21T10:33:00.118Z,8.10
2019-05-21T10:35:28.784Z,7.80
2019-05-21T10:37:57.514Z,7.50
2019-05-21T10:40:26.266Z,8.00
2019-05-21T10:42:54.880Z,7.85
2019-05-21T10:45:23.431Z,8.48
2019-05-21T10:47:52.002Z,8.05
2019-05-21T10:50:21.131Z,7.72
2019-05-21T10:52:49.667Z,8.00
2019-05-21T10:55:18.201Z,8.80
2019-05-21T10:57:46.902Z,8.35
2019-05-21T11:00:23.081Z,8.78
2019-05-21T11:03:09.524Z,8.65
2019-05-21T11:05:42.475Z,9.15
2019-05-21T11:08:26.514Z,7.90
2019-05-21T11:10:41.651Z,6.55
2019-05-21T11:13:10.204Z,7.28
2019-05-21T11:15:38.917Z,7.20
2019-05-21T11:18:11.174Z,8.80
2019-05-21T11:20:38.349Z,8.55
2019-05-21T11:23:06.979Z,8.38
2019-05-21T11:25:35.564Z,8.98
2019-05-21T11:28:06.185Z,8.35
2019-05-21T11:30:34.714Z,8.50
2019-05-21T11:33:03.325Z,10.15
2019-05-21T11:35:35.280Z,9.10
2019-05-21T11:38:02.246Z,8.83
2019-05-21T11:40:31.445Z,8.05
2019-05-21T11:43:00.064Z,8.50
2019-05-21T11:45:32.418Z,7.53
2019-05-21T11:47:59.196Z,8.00
2019-05-21T11:50:28.184Z,7.37
2019-05-21T11:52:56.754Z,7.22
2019-05-21T11:55:25.324Z,6.87
2019-05-21T11:57:53.977Z,6.97
2019-05-21T12:00:24.456Z,7.65
2019-05-21T12:02:53.278Z,8.03
2019-05-21T12:05:21.819Z,8.10
2019-05-21T12:07:50.433Z,7.95
2019-05-21T12:10:19.169Z,8.30
2019-05-21T12:12:47.936Z,8.58
2019-05-21T12:15:17.222Z,9.73
2019-05-21T12:17:46.007Z,9.23
2019-05-21T12:20:15.529Z,10.25
2019-05-21T12:22:44.066Z,10.65
2019-05-21T12:25:13.059Z,9.93
2019-05-21T12:27:41.795Z,11.22
2019-05-21T12:30:10.833Z,10.25
2019-05-21T12:32:39.518Z,10.65
2019-05-21T12:35:09.016Z,8.43
2019-05-21T12:37:37.563Z,8.98
2019-05-21T12:40:08.052Z,10.53
2019-05-21T12:42:36.610Z,9.65
2019-05-21T12:45:06.500Z,10.98
2019-05-21T12:47:35.407Z,9.70
2019-05-21T12:50:05.217Z,9.65
2019-05-21T12:52:34.078Z,9.33
2019-05-21T12:55:03.364Z,9.08
2019-05-21T12:57:31.822Z,8.80
2019-05-21T13:00:00.362Z,9.08
2019-05-21T13:02:29.445Z,10.10
2019-05-21T13:04:58.012Z,10.58
2019-05-21T13:07:26.821Z,10.93
2019-05-21T13:09:55.809Z,10.55
2019-05-21T13:12:24.460Z,9.95
2019-05-21T13:14:52.918Z,10.25
2019-05-21T13:17:21.573Z,10.20
2019-05-21T13:19:53.001Z,9.73
2019-05-21T13:22:21.641Z,6.53
2019-05-21T13:24:50.381Z,8.30
2019-05-21T13:27:18.913Z,9.23
2019-05-21T13:29:47.421Z,9.28
2019-05-21T13:32:17.164Z,10.78
2019-05-21T13:34:45.625Z,9.15
2019-05-21T13:37:14.508Z,10.38
2019-05-21T13:39:50.067Z,10.20
2019-05-21T13:42:14.856Z,9.88
2019-05-21T13:44:43.414Z,11.05
2019-05-21T13:47:12.170Z,11.45
2019-05-21T13:49:40.728Z,11.00
2019-05-21T13:52:09.807Z,11.08
2019-05-21T13:54:38.613Z,11.85
2019-05-21T13:57:07.403Z,13.55
2019-05-21T13:59:36.096Z,12.90
2019-05-21T14:02:06.098Z,13.25
2019-05-21T14:04:34.704Z,11.83
2019-05-21T14:07:03.347Z,11.57
2019-05-21T14:09:32.596Z,10.63
2019-05-21T14:12:01.572Z,11.28
2019-05-21T14:14:30.209Z,11.93
2019-05-21T14:16:59.378Z,12.13
2019-05-21T14:19:28.138Z,11.43
2019-05-21T14:21:57.089Z,12.70
2019-05-21T14:24:25.791Z,10.70
2019-05-21T14:26:54.348Z,10.90
2019-05-21T14:29:23.095Z,11.35
2019-05-21T14:31:52.013Z,10.78
2019-05-21T14:34:20.566Z,10.80
2019-05-21T14:36:49.096Z,10.93
2019-05-21T14:39:18.636Z,11.20
2019-05-21T14:41:48.602Z,11.38
2019-05-21T14:44:17.134Z,11.75
2019-05-21T14:46:46.133Z,11.35
2019-05-21T14:49:14.709Z,11.70
2019-05-21T14:51:43.720Z,12.45
2019-05-21T14:54:25.472Z,12.58
2019-05-21T14:56:47.304Z,11.65
2019-05-21T14:59:13.716Z,10.68
2019-05-21T15:01:43.052Z,11.10
2019-05-21T15:04:11.796Z,10.78
2019-05-21T15:06:40.505Z,11.73
2019-05-21T15:09:10.615Z,10.75
2019-05-21T15:11:40.486Z,11.30
2019-05-21T15:14:09.100Z,13.25
2019-05-21T15:16:37.886Z,13.05
2019-05-21T15:19:06.415Z,13.85
2019-05-21T15:21:36.657Z,13.10
2019-05-21T15:24:05.706Z,13.40
2019-05-21T15:26:35.880Z,13.20
2019-05-21T15:29:21.150Z,12.50
2019-05-21T15:31:49.916Z,13.98
2019-05-21T15:34:18.604Z,12.93
2019-05-21T15:36:47.116Z,13.60
2019-05-21T15:39:15.825Z,12.28
2019-05-21T15:41:44.465Z,10.65
2019-05-21T15:44:13.054Z,10.30
2019-05-21T15:46:48.702Z,10.80
2019-05-21T15:49:11.802Z,10.53
2019-05-21T15:51:40.555Z,11.43
2019-05-21T15:54:09.093Z,11.38
2019-05-21T15:56:37.687Z,11.28
2019-05-21T15:59:06.665Z,10.98
2019-05-21T16:01:35.378Z,11.60
2019-05-21T16:04:03.923Z,9.93
2019-05-21T16:06:32.548Z,10.55
2019-05-21T16:09:01.164Z,10.65
2019-05-21T16:11:30.849Z,10.93
2019-05-21T16:13:59.432Z,11.00
2019-05-21T16:16:27.935Z,10.40
2019-05-21T16:18:56.547Z,11.12
2019-05-21T16:21:25.655Z,11.35
2019-05-21T16:23:54.209Z,10.78
2019-05-21T16:26:24.365Z,11.45
2019-05-21T16:28:53.233Z,10.90
2019-05-21T16:31:22.019Z,11.40
2019-05-21T16:33:50.571Z,10.50
2019-05-21T16:36:19.504Z,10.72
2019-05-21T16:38:48.133Z,11.53
2019-05-21T16:41:17.162Z,10.08
2019-05-21T16:43:47.334Z,8.85
2019-05-21T16:46:15.976Z,9.53
2019-05-21T16:48:44.543Z,8.58
2019-05-21T16:51:13.622Z,9.05
2019-05-21T16:53:42.240Z,9.38
2019-05-21T16:56:10.872Z,9.68
2019-05-21T16:58:39.478Z,8.68
2019-05-21T17:01:08.709Z,8.63
2019-05-21T17:03:37.183Z,7.87
2019-05-21T17:06:06.100Z,8.83
2019-05-21T17:08:34.590Z,8.65
2019-05-21T17:11:03.375Z,8.18
2019-05-21T17:13:31.929Z,8.03
2019-05-21T17:16:00.815Z,9.25
2019-05-21T17:18:29.383Z,8.98
2019-05-21T17:20:58.338Z,9.13
2019-05-21T17:23:26.906Z,9.05
2019-05-21T17:25:55.918Z,9.23
2019-05-21T17:28:24.613Z,9.08
2019-05-21T17:30:53.500Z,9.10
2019-05-21T17:33:22.023Z,10.10
2019-05-21T17:35:50.789Z,8.75
2019-05-21T17:38:19.515Z,8.53
2019-05-21T17:40:48.542Z,9.55
2019-05-21T17:43:17.420Z,10.20
2019-05-21T17:45:46.049Z,10.10
2019-05-21T17:48:14.674Z,10.78
2019-05-21T17:50:44.820Z,11.95
2019-05-21T17:53:13.617Z,11.83
2019-05-21T17:55:42.317Z,10.75
2019-05-21T17:58:11.189Z,11.68
2019-05-21T18:00:53.508Z,10.63
2019-05-21T18:03:22.272Z,10.75
2019-05-21T18:05:51.260Z,9.80
2019-05-21T18:08:20.873Z,11.00
2019-05-21T18:10:50.092Z,9.95
2019-05-21T18:13:19.723Z,9.63
2019-05-21T18:15:49.237Z,9.38
2019-05-21T18:18:18.070Z,8.75
2019-05-21T18:20:50.296Z,8.48
2019-05-21T18:23:19.171Z,9.23
2019-05-21T18:25:47.998Z,9.30
2019-05-21T18:28:16.826Z,8.48
2019-05-21T18:30:46.091Z,9.35
2019-05-21T18:33:14.946Z,9.95
2019-05-21T18:35:45.427Z,10.25
2019-05-21T18:38:14.506Z,9.48
2019-05-21T18:40:43.361Z,10.03
2019-05-21T18:43:11.974Z,9.83
2019-05-21T18:45:40.823Z,11.28
2019-05-21T18:48:09.463Z,10.63
2019-05-21T18:50:38.366Z,11.70
2019-05-21T18:53:07.040Z,11.57
2019-05-21T18:55:39.072Z,9.98
2019-05-21T18:58:08.110Z,10.48
2019-05-21T19:00:38.176Z,11.38
2019-05-21T19:03:07.151Z,11.48
2019-05-21T19:05:35.873Z,12.00
2019-05-21T19:08:04.697Z,12.73
2019-05-21T19:10:33.763Z,12.80
2019-05-21T19:13:02.547Z,13.28
2019-05-21T19:15:31.113Z,15.30
2019-05-21T19:17:59.990Z,13.58
2019-05-21T19:20:28.765Z,14.55
2019-05-21T19:22:57.479Z,14.55
2019-05-21T19:25:26.268Z,13.88
2019-05-21T19:27:55.257Z,14.47
2019-05-21T19:30:24.213Z,14.07
2019-05-21T19:32:52.875Z,13.72
2019-05-21T19:35:21.713Z,12.07
2019-05-21T19:37:50.435Z,11.30
2019-05-21T19:40:19.319Z,11.80
2019-05-21T19:42:55.028Z,11.97
2019-05-21T19:45:18.376Z,12.58
2019-05-21T19:47:47.022Z,11.80
2019-05-21T19:50:17.895Z,10.98
2019-05-21T19:52:46.462Z,11.40
2019-05-21T19:55:15.519Z,10.78
2019-05-21T19:57:44.199Z,11.03
2019-05-21T20:00:13.312Z,12.10
2019-05-21T20:02:42.592Z,12.10
2019-05-21T20:05:12.170Z,12.70
2019-05-21T20:07:41.542Z,12.78
2019-05-21T20:10:11.445Z,13.30
2019-05-21T20:12:42.074Z,13.70
2019-05-21T20:15:10.935Z,13.62
2019-05-21T20:17:41.320Z,13.20
2019-05-21T20:20:11.799Z,13.88
2019-05-21T20:22:42.441Z,13.22
2019-05-21T20:25:12.326Z,14.23
2019-05-21T20:27:41.423Z,13.78
2019-05-21T20:30:13.098Z,14.20
2019-05-21T20:35:14.972Z,12.63
2019-05-21T20:37:45.027Z,13.22
2019-05-21T20:40:16.805Z,13.62
2019-05-21T20:42:46.293Z,13.70
2019-05-21T20:45:16.842Z,13.40
2019-05-21T20:47:46.129Z,13.78
2019-05-21T20:50:16.935Z,13.45
2019-05-21T20:52:45.532Z,13.55
2019-05-21T20:55:17.033Z,11.55
2019-05-21T20:57:45.513Z,10.53
2019-05-21T21:00:16.063Z,11.40
2019-05-21T21:02:44.758Z,11.50
2019-05-21T21:05:14.564Z,11.33
2019-05-21T21:07:43.295Z,11.05
2019-05-21T21:10:13.039Z,11.78
2019-05-21T21:12:41.967Z,12.70
2019-05-21T21:15:11.549Z,12.35
2019-05-21T21:17:40.565Z,12.75
2019-05-21T21:20:09.473Z,12.47
2019-05-21T21:22:38.416Z,12.93
2019-05-21T21:25:08.596Z,12.95
2019-05-21T21:27:37.468Z,11.65
2019-05-21T21:30:08.244Z,11.30
2019-05-21T21:32:36.957Z,10.45
2019-05-21T21:35:06.705Z,11.83
2019-05-21T21:37:35.332Z,12.07
2019-05-21T21:40:06.937Z,11.22
2019-05-21T21:42:35.885Z,11.95
2019-05-21T21:45:09.009Z,11.45
2019-05-21T21:47:38.256Z,11.48
2019-05-21T21:50:07.373Z,11.73
2019-05-21T21:52:37.068Z,11.40
2019-05-21T21:55:06.881Z,10.78
2019-05-21T21:57:35.702Z,11.30
2019-05-21T22:00:07.749Z,11.78
2019-05-21T22:02:37.164Z,10.40
2019-05-21T22:05:08.273Z,10.13
2019-05-21T22:07:38.546Z,11.03
2019-05-21T22:10:08.828Z,10.13
2019-05-21T22:12:38.704Z,9.70
2019-05-21T22:15:07.876Z,9.78
2019-05-21T22:17:36.796Z,9.43
2019-05-21T22:20:08.288Z,9.68
2019-05-21T22:22:36.805Z,9.75
2019-05-21T22:25:06.731Z,9.23
2019-05-21T22:27:35.347Z,8.88
2019-05-21T22:30:05.566Z,9.15
2019-05-21T22:32:34.317Z,9.13
2019-05-21T22:35:02.872Z,10.00
2019-05-21T22:37:31.842Z,9.73
2019-05-21T22:40:00.943Z,8.48
2019-05-21T22:42:31.923Z,8.95
2019-05-21T22:45:07.931Z,9.50
2019-05-21T22:47:32.283Z,9.40
2019-05-21T22:50:00.855Z,9.45
2019-05-21T22:52:29.787Z,9.93
2019-05-21T22:54:59.042Z,10.10
2019-05-21T22:57:27.505Z,10.15
2019-05-21T22:59:56.047Z,10.48
2019-05-21T23:02:27.714Z,10.20
2019-05-21T23:04:56.376Z,10.80
2019-05-21T23:07:24.925Z,10.82
2019-05-21T23:09:54.714Z,11.00
2019-05-21T23:12:24.131Z,11.10
2019-05-21T23:14:52.759Z,9.70
2019-05-21T23:17:21.480Z,9.45
2019-05-21T23:19:50.844Z,9.40
2019-05-21T23:22:22.456Z,11.73
2019-05-21T23:24:51.180Z,11.45
2019-05-21T23:27:20.755Z,10.43
2019-05-21T23:29:50.072Z,10.38
2019-05-21T23:32:19.932Z,9.43
2019-05-21T23:34:49.547Z,9.88
2019-05-21T23:37:21.958Z,8.75
2019-05-21T23:39:53.362Z,9.10
2019-05-21T23:42:29.512Z,9.28
2019-05-21T23:44:53.209Z,8.90
2019-05-21T23:47:23.907Z,8.68
2019-05-21T23:49:54.116Z,8.05
2019-05-21T23:52:25.262Z,8.83
2019-05-21T23:54:54.151Z,8.00
2019-05-21T23:57:24.356Z,8.98
2019-05-21T23:59:53.012Z,8.83
